sensor_id;sensor_type;location;lat;lon;timestamp;P1;durP1;ratioP1;P2;durP2;ratioP2
8889;SDS011;4481;43.406;24.454;2022-10-16T00:01:30;10.90;;;8.13;;
8889;SDS011;4481;43.406;24.454;2022-10-16T00:03:57;9.50;;;8.00;;
8889;SDS011;4481;43.406;24.454;2022-10-16T00:06:24;16.27;;;7.97;;
8889;SDS011;4481;43.406;24.454;2022-10-16T00:08:51;15.17;;;8.07;;
8889;SDS011;4481;43.406;24.454;2022-10-16T00:11:19;9.40;;;8.30;;
8889;SDS011;4481;43.406;24.454;2022-10-16T00:13:47;9.37;;;7.77;;
8889;SDS011;4481;43.406;24.454;2022-10-16T00:16:15;10.47;;;7.50;;
8889;SDS011;4481;43.406;24.454;2022-10-16T00:18:42;9.30;;;7.30;;
8889;SDS011;4481;43.406;24.454;2022-10-16T00:21:09;16.93;;;7.53;;
8889;SDS011;4481;43.406;24.454;2022-10-16T00:23:36;10.30;;;7.73;;
8889;SDS011;4481;43.406;24.454;2022-10-16T00:26:04;12.43;;;8.00;;
8889;SDS011;4481;43.406;24.454;2022-10-16T00:28:32;13.37;;;8.23;;
8889;SDS011;4481;43.406;24.454;2022-10-16T00:31:02;14.63;;;7.90;;
8889;SDS011;4481;43.406;24.454;2022-10-16T00:33:29;10.00;;;7.70;;
8889;SDS011;4481;43.406;24.454;2022-10-16T00:35:57;11.80;;;7.97;;
8889;SDS011;4481;43.406;24.454;2022-10-16T00:38:23;7.57;;;6.77;;
8889;SDS011;4481;43.406;24.454;2022-10-16T00:40:49;12.90;;;8.00;;
8889;SDS011;4481;43.406;24.454;2022-10-16T00:46:07;9.73;;;7.63;;
8889;SDS011;4481;43.406;24.454;2022-10-16T00:48:39;9.90;;;7.20;;
8889;SDS011;4481;43.406;24.454;2022-10-16T00:51:05;8.10;;;7.07;;
8889;SDS011;4481;43.406;24.454;2022-10-16T00:53:33;10.87;;;7.70;;
8889;SDS011;4481;43.406;24.454;2022-10-16T00:55:59;12.10;;;7.70;;
8889;SDS011;4481;43.406;24.454;2022-10-16T00:58:25;9.13;;;7.33;;
8889;SDS011;4481;43.406;24.454;2022-10-16T01:00:52;13.07;;;7.30;;
8889;SDS011;4481;43.406;24.454;2022-10-16T01:03:22;10.87;;;7.63;;
8889;SDS011;4481;43.406;24.454;2022-10-16T01:05:52;10.20;;;7.07;;
8889;SDS011;4481;43.406;24.454;2022-10-16T01:08:30;10.57;;;7.10;;
8889;SDS011;4481;43.406;24.454;2022-10-16T01:11:06;7.47;;;6.40;;
8889;SDS011;4481;43.406;24.454;2022-10-16T01:13:41;9.17;;;7.03;;
8889;SDS011;4481;43.406;24.454;2022-10-16T01:16:13;12.40;;;7.63;;
8889;SDS011;4481;43.406;24.454;2022-10-16T01:18:44;11.87;;;7.37;;
8889;SDS011;4481;43.406;24.454;2022-10-16T01:21:16;14.10;;;7.07;;
8889;SDS011;4481;43.406;24.454;2022-10-16T01:23:48;11.37;;;6.83;;
8889;SDS011;4481;43.406;24.454;2022-10-16T01:26:31;9.13;;;7.20;;
8889;SDS011;4481;43.406;24.454;2022-10-16T01:29:09;11.47;;;7.70;;
8889;SDS011;4481;43.406;24.454;2022-10-16T01:31:41;11.23;;;7.70;;
8889;SDS011;4481;43.406;24.454;2022-10-16T01:34:14;16.30;;;8.47;;
8889;SDS011;4481;43.406;24.454;2022-10-16T01:36:43;12.40;;;8.97;;
8889;SDS011;4481;43.406;24.454;2022-10-16T01:39:14;9.80;;;8.27;;
8889;SDS011;4481;43.406;24.454;2022-10-16T01:41:45;14.23;;;9.80;;
8889;SDS011;4481;43.406;24.454;2022-10-16T01:44:16;13.57;;;8.47;;
8889;SDS011;4481;43.406;24.454;2022-10-16T01:46:47;9.37;;;7.00;;
8889;SDS011;4481;43.406;24.454;2022-10-16T01:49:16;11.93;;;7.73;;
8889;SDS011;4481;43.406;24.454;2022-10-16T01:51:44;8.47;;;6.83;;
8889;SDS011;4481;43.406;24.454;2022-10-16T01:54:14;8.17;;;6.97;;
8889;SDS011;4481;43.406;24.454;2022-10-16T01:56:44;12.50;;;7.50;;
8889;SDS011;4481;43.406;24.454;2022-10-16T01:59:12;10.67;;;6.03;;
8889;SDS011;4481;43.406;24.454;2022-10-16T02:01:42;8.83;;;7.77;;
8889;SDS011;4481;43.406;24.454;2022-10-16T02:04:13;8.63;;;6.83;;
8889;SDS011;4481;43.406;24.454;2022-10-16T02:06:43;6.97;;;6.37;;
8889;SDS011;4481;43.406;24.454;2022-10-16T02:09:09;7.47;;;6.60;;
8889;SDS011;4481;43.406;24.454;2022-10-16T02:11:36;9.53;;;6.80;;
8889;SDS011;4481;43.406;24.454;2022-10-16T02:14:03;8.07;;;6.77;;
8889;SDS011;4481;43.406;24.454;2022-10-16T02:16:34;10.67;;;6.53;;
8889;SDS011;4481;43.406;24.454;2022-10-16T02:19:02;7.80;;;7.00;;
8889;SDS011;4481;43.406;24.454;2022-10-16T02:21:30;8.90;;;6.63;;
8889;SDS011;4481;43.406;24.454;2022-10-16T02:24:05;12.17;;;6.60;;
8889;SDS011;4481;43.406;24.454;2022-10-16T02:26:37;12.53;;;6.87;;
8889;SDS011;4481;43.406;24.454;2022-10-16T02:29:10;9.07;;;6.47;;
8889;SDS011;4481;43.406;24.454;2022-10-16T02:31:41;7.80;;;6.67;;
8889;SDS011;4481;43.406;24.454;2022-10-16T02:34:10;6.90;;;6.20;;
8889;SDS011;4481;43.406;24.454;2022-10-16T02:36:39;10.10;;;7.17;;
8889;SDS011;4481;43.406;24.454;2022-10-16T02:39:07;10.07;;;7.13;;
8889;SDS011;4481;43.406;24.454;2022-10-16T02:41:34;8.63;;;6.70;;
8889;SDS011;4481;43.406;24.454;2022-10-16T02:44:00;7.93;;;5.73;;
8889;SDS011;4481;43.406;24.454;2022-10-16T02:46:26;8.10;;;6.03;;
8889;SDS011;4481;43.406;24.454;2022-10-16T02:48:52;12.93;;;6.90;;
8889;SDS011;4481;43.406;24.454;2022-10-16T02:51:19;11.80;;;6.97;;
8889;SDS011;4481;43.406;24.454;2022-10-16T02:53:45;9.10;;;7.73;;
8889;SDS011;4481;43.406;24.454;2022-10-16T02:56:11;11.57;;;8.07;;
8889;SDS011;4481;43.406;24.454;2022-10-16T02:58:37;13.23;;;8.30;;
8889;SDS011;4481;43.406;24.454;2022-10-16T03:01:03;9.93;;;7.80;;
8889;SDS011;4481;43.406;24.454;2022-10-16T03:03:30;12.07;;;7.63;;
8889;SDS011;4481;43.406;24.454;2022-10-16T03:05:56;9.27;;;7.77;;
8889;SDS011;4481;43.406;24.454;2022-10-16T03:08:23;11.60;;;6.73;;
8889;SDS011;4481;43.406;24.454;2022-10-16T03:10:50;12.37;;;8.30;;
8889;SDS011;4481;43.406;24.454;2022-10-16T03:13:16;11.30;;;8.80;;
8889;SDS011;4481;43.406;24.454;2022-10-16T03:15:45;19.53;;;10.40;;
8889;SDS011;4481;43.406;24.454;2022-10-16T03:18:11;12.07;;;8.63;;
8889;SDS011;4481;43.406;24.454;2022-10-16T03:20:37;10.50;;;8.77;;
8889;SDS011;4481;43.406;24.454;2022-10-16T03:23:04;14.67;;;8.37;;
8889;SDS011;4481;43.406;24.454;2022-10-16T03:25:30;9.17;;;6.90;;
8889;SDS011;4481;43.406;24.454;2022-10-16T03:27:56;10.53;;;7.63;;
8889;SDS011;4481;43.406;24.454;2022-10-16T03:30:22;9.67;;;7.30;;
8889;SDS011;4481;43.406;24.454;2022-10-16T03:32:49;12.93;;;7.53;;
8889;SDS011;4481;43.406;24.454;2022-10-16T03:35:18;10.40;;;7.23;;
8889;SDS011;4481;43.406;24.454;2022-10-16T03:37:45;9.87;;;7.73;;
8889;SDS011;4481;43.406;24.454;2022-10-16T03:40:11;7.93;;;6.73;;
8889;SDS011;4481;43.406;24.454;2022-10-16T03:42:39;7.93;;;6.97;;
8889;SDS011;4481;43.406;24.454;2022-10-16T03:45:05;9.70;;;6.63;;
8889;SDS011;4481;43.406;24.454;2022-10-16T03:47:32;10.67;;;6.47;;
8889;SDS011;4481;43.406;24.454;2022-10-16T03:49:58;8.73;;;6.33;;
8889;SDS011;4481;43.406;24.454;2022-10-16T03:52:24;11.50;;;7.00;;
8889;SDS011;4481;43.406;24.454;2022-10-16T03:54:51;9.83;;;6.80;;
8889;SDS011;4481;43.406;24.454;2022-10-16T03:57:17;8.67;;;6.87;;
8889;SDS011;4481;43.406;24.454;2022-10-16T03:59:44;9.57;;;6.77;;
8889;SDS011;4481;43.406;24.454;2022-10-16T04:02:10;9.50;;;6.73;;
8889;SDS011;4481;43.406;24.454;2022-10-16T04:04:36;9.30;;;6.70;;
8889;SDS011;4481;43.406;24.454;2022-10-16T04:07:02;7.10;;;6.40;;
8889;SDS011;4481;43.406;24.454;2022-10-16T04:09:28;11.00;;;7.27;;
8889;SDS011;4481;43.406;24.454;2022-10-16T04:11:54;6.67;;;5.87;;
8889;SDS011;4481;43.406;24.454;2022-10-16T04:14:20;9.83;;;6.67;;
8889;SDS011;4481;43.406;24.454;2022-10-16T04:16:47;8.33;;;6.83;;
8889;SDS011;4481;43.406;24.454;2022-10-16T04:19:13;10.60;;;7.33;;
8889;SDS011;4481;43.406;24.454;2022-10-16T04:21:39;9.03;;;7.07;;
8889;SDS011;4481;43.406;24.454;2022-10-16T04:24:06;7.80;;;6.83;;
8889;SDS011;4481;43.406;24.454;2022-10-16T04:26:32;9.97;;;7.23;;
8889;SDS011;4481;43.406;24.454;2022-10-16T04:28:58;10.17;;;7.87;;
8889;SDS011;4481;43.406;24.454;2022-10-16T04:31:24;12.17;;;9.13;;
8889;SDS011;4481;43.406;24.454;2022-10-16T04:33:51;12.40;;;9.13;;
8889;SDS011;4481;43.406;24.454;2022-10-16T04:36:17;11.63;;;9.70;;
8889;SDS011;4481;43.406;24.454;2022-10-16T04:38:43;15.00;;;8.83;;
8889;SDS011;4481;43.406;24.454;2022-10-16T04:41:09;14.20;;;9.57;;
8889;SDS011;4481;43.406;24.454;2022-10-16T04:43:36;11.97;;;9.77;;
8889;SDS011;4481;43.406;24.454;2022-10-16T04:46:02;10.20;;;8.43;;
8889;SDS011;4481;43.406;24.454;2022-10-16T04:48:29;11.60;;;9.33;;
8889;SDS011;4481;43.406;24.454;2022-10-16T04:50:56;8.87;;;7.77;;
8889;SDS011;4481;43.406;24.454;2022-10-16T04:53:22;11.27;;;8.70;;
8889;SDS011;4481;43.406;24.454;2022-10-16T04:55:48;11.03;;;8.27;;
8889;SDS011;4481;43.406;24.454;2022-10-16T04:58:15;11.53;;;8.67;;
8889;SDS011;4481;43.406;24.454;2022-10-16T05:00:41;9.43;;;7.87;;
8889;SDS011;4481;43.406;24.454;2022-10-16T05:03:07;10.47;;;8.43;;
8889;SDS011;4481;43.406;24.454;2022-10-16T05:05:33;11.33;;;8.23;;
8889;SDS011;4481;43.406;24.454;2022-10-16T05:08:00;13.13;;;7.70;;
8889;SDS011;4481;43.406;24.454;2022-10-16T05:10:27;9.70;;;8.47;;
8889;SDS011;4481;43.406;24.454;2022-10-16T05:12:53;13.63;;;9.47;;
8889;SDS011;4481;43.406;24.454;2022-10-16T05:15:19;13.03;;;9.50;;
8889;SDS011;4481;43.406;24.454;2022-10-16T05:17:45;9.43;;;7.97;;
8889;SDS011;4481;43.406;24.454;2022-10-16T05:20:11;13.07;;;8.87;;
8889;SDS011;4481;43.406;24.454;2022-10-16T05:22:38;12.63;;;7.90;;
8889;SDS011;4481;43.406;24.454;2022-10-16T05:25:05;12.23;;;8.00;;
8889;SDS011;4481;43.406;24.454;2022-10-16T05:27:31;9.13;;;8.23;;
8889;SDS011;4481;43.406;24.454;2022-10-16T05:29:57;14.07;;;9.93;;
8889;SDS011;4481;43.406;24.454;2022-10-16T05:32:24;10.53;;;8.57;;
8889;SDS011;4481;43.406;24.454;2022-10-16T05:34:50;15.10;;;9.07;;
8889;SDS011;4481;43.406;24.454;2022-10-16T05:37:16;10.10;;;7.87;;
8889;SDS011;4481;43.406;24.454;2022-10-16T05:39:42;13.37;;;8.17;;
8889;SDS011;4481;43.406;24.454;2022-10-16T05:42:09;11.13;;;8.20;;
8889;SDS011;4481;43.406;24.454;2022-10-16T05:44:35;10.13;;;7.70;;
8889;SDS011;4481;43.406;24.454;2022-10-16T05:47:01;10.67;;;7.63;;
8889;SDS011;4481;43.406;24.454;2022-10-16T05:49:27;9.43;;;7.53;;
8889;SDS011;4481;43.406;24.454;2022-10-16T05:51:53;11.33;;;7.13;;
8889;SDS011;4481;43.406;24.454;2022-10-16T05:54:19;10.73;;;7.67;;
8889;SDS011;4481;43.406;24.454;2022-10-16T05:56:46;13.33;;;7.13;;
8889;SDS011;4481;43.406;24.454;2022-10-16T05:59:12;10.63;;;7.20;;
8889;SDS011;4481;43.406;24.454;2022-10-16T06:01:39;12.33;;;8.10;;
8889;SDS011;4481;43.406;24.454;2022-10-16T06:04:05;11.80;;;7.27;;
8889;SDS011;4481;43.406;24.454;2022-10-16T06:06:31;8.00;;;7.00;;
8889;SDS011;4481;43.406;24.454;2022-10-16T06:08:57;7.97;;;6.23;;
8889;SDS011;4481;43.406;24.454;2022-10-16T06:11:25;7.60;;;6.63;;
8889;SDS011;4481;43.406;24.454;2022-10-16T06:13:54;7.47;;;6.57;;
8889;SDS011;4481;43.406;24.454;2022-10-16T06:16:22;7.00;;;5.87;;
8889;SDS011;4481;43.406;24.454;2022-10-16T06:18:50;9.00;;;5.60;;
8889;SDS011;4481;43.406;24.454;2022-10-16T06:21:18;7.13;;;6.03;;
8889;SDS011;4481;43.406;24.454;2022-10-16T06:23:45;10.10;;;6.03;;
8889;SDS011;4481;43.406;24.454;2022-10-16T06:26:12;7.40;;;6.33;;
8889;SDS011;4481;43.406;24.454;2022-10-16T06:28:39;7.40;;;5.93;;
8889;SDS011;4481;43.406;24.454;2022-10-16T06:31:07;6.60;;;5.83;;
8889;SDS011;4481;43.406;24.454;2022-10-16T06:33:34;6.27;;;5.67;;
8889;SDS011;4481;43.406;24.454;2022-10-16T06:36:01;6.13;;;5.53;;
8889;SDS011;4481;43.406;24.454;2022-10-16T06:38:28;6.87;;;5.63;;
8889;SDS011;4481;43.406;24.454;2022-10-16T06:40:54;8.23;;;6.00;;
8889;SDS011;4481;43.406;24.454;2022-10-16T06:43:20;6.50;;;5.70;;
8889;SDS011;4481;43.406;24.454;2022-10-16T06:45:49;7.23;;;5.23;;
8889;SDS011;4481;43.406;24.454;2022-10-16T06:48:16;7.00;;;5.83;;
8889;SDS011;4481;43.406;24.454;2022-10-16T06:50:43;12.13;;;6.00;;
8889;SDS011;4481;43.406;24.454;2022-10-16T06:53:09;10.57;;;6.17;;
8889;SDS011;4481;43.406;24.454;2022-10-16T06:55:35;5.43;;;4.93;;
8889;SDS011;4481;43.406;24.454;2022-10-16T06:58:01;9.60;;;5.53;;
8889;SDS011;4481;43.406;24.454;2022-10-16T07:00:27;7.77;;;5.83;;
8889;SDS011;4481;43.406;24.454;2022-10-16T07:02:53;10.30;;;5.90;;
8889;SDS011;4481;43.406;24.454;2022-10-16T07:05:20;7.10;;;5.67;;
8889;SDS011;4481;43.406;24.454;2022-10-16T07:07:46;7.60;;;5.83;;
8889;SDS011;4481;43.406;24.454;2022-10-16T07:10:12;6.03;;;5.43;;
8889;SDS011;4481;43.406;24.454;2022-10-16T07:12:39;6.93;;;5.70;;
8889;SDS011;4481;43.406;24.454;2022-10-16T07:15:05;7.17;;;6.20;;
8889;SDS011;4481;43.406;24.454;2022-10-16T07:17:32;8.17;;;5.53;;
8889;SDS011;4481;43.406;24.454;2022-10-16T07:19:58;8.10;;;5.10;;
8889;SDS011;4481;43.406;24.454;2022-10-16T07:22:24;9.07;;;5.67;;
8889;SDS011;4481;43.406;24.454;2022-10-16T07:24:51;6.50;;;5.77;;
8889;SDS011;4481;43.406;24.454;2022-10-16T07:27:17;14.07;;;6.33;;
8889;SDS011;4481;43.406;24.454;2022-10-16T07:29:43;8.57;;;5.90;;
8889;SDS011;4481;43.406;24.454;2022-10-16T07:32:10;7.67;;;5.37;;
8889;SDS011;4481;43.406;24.454;2022-10-16T07:34:36;5.97;;;5.27;;
8889;SDS011;4481;43.406;24.454;2022-10-16T07:37:02;9.60;;;5.87;;
8889;SDS011;4481;43.406;24.454;2022-10-16T07:39:28;8.17;;;6.23;;
8889;SDS011;4481;43.406;24.454;2022-10-16T07:41:55;9.53;;;7.17;;
8889;SDS011;4481;43.406;24.454;2022-10-16T07:44:21;7.83;;;6.53;;
8889;SDS011;4481;43.406;24.454;2022-10-16T07:46:47;6.70;;;6.00;;
8889;SDS011;4481;43.406;24.454;2022-10-16T07:49:13;8.30;;;5.33;;
8889;SDS011;4481;43.406;24.454;2022-10-16T07:51:39;7.83;;;6.17;;
8889;SDS011;4481;43.406;24.454;2022-10-16T07:54:05;12.33;;;6.70;;
8889;SDS011;4481;43.406;24.454;2022-10-16T07:56:33;8.17;;;6.53;;
8889;SDS011;4481;43.406;24.454;2022-10-16T07:59:00;7.43;;;6.63;;
8889;SDS011;4481;43.406;24.454;2022-10-16T08:01:26;9.57;;;6.57;;
8889;SDS011;4481;43.406;24.454;2022-10-16T08:03:52;9.47;;;7.33;;
8889;SDS011;4481;43.406;24.454;2022-10-16T08:06:19;11.17;;;6.63;;
8889;SDS011;4481;43.406;24.454;2022-10-16T08:08:46;8.60;;;6.87;;
8889;SDS011;4481;43.406;24.454;2022-10-16T08:11:13;9.57;;;7.20;;
8889;SDS011;4481;43.406;24.454;2022-10-16T08:13:39;9.10;;;6.27;;
8889;SDS011;4481;43.406;24.454;2022-10-16T08:16:07;6.97;;;6.13;;
8889;SDS011;4481;43.406;24.454;2022-10-16T08:18:34;9.83;;;6.43;;
8889;SDS011;4481;43.406;24.454;2022-10-16T08:21:01;9.03;;;5.80;;
8889;SDS011;4481;43.406;24.454;2022-10-16T08:23:28;6.77;;;5.70;;
8889;SDS011;4481;43.406;24.454;2022-10-16T08:25:54;6.80;;;5.97;;
8889;SDS011;4481;43.406;24.454;2022-10-16T08:28:21;8.63;;;5.77;;
8889;SDS011;4481;43.406;24.454;2022-10-16T08:30:48;9.83;;;5.13;;
8889;SDS011;4481;43.406;24.454;2022-10-16T08:33:15;7.10;;;5.40;;
8889;SDS011;4481;43.406;24.454;2022-10-16T08:35:41;6.30;;;5.70;;
8889;SDS011;4481;43.406;24.454;2022-10-16T08:38:07;6.93;;;5.60;;
8889;SDS011;4481;43.406;24.454;2022-10-16T08:40:36;8.13;;;6.10;;
8889;SDS011;4481;43.406;24.454;2022-10-16T08:43:15;9.23;;;6.80;;
8889;SDS011;4481;43.406;24.454;2022-10-16T08:46:10;10.47;;;8.87;;
8889;SDS011;4481;43.406;24.454;2022-10-16T08:48:49;9.20;;;7.00;;
8889;SDS011;4481;43.406;24.454;2022-10-16T08:51:18;10.90;;;6.33;;
8889;SDS011;4481;43.406;24.454;2022-10-16T08:53:49;7.10;;;6.20;;
8889;SDS011;4481;43.406;24.454;2022-10-16T08:56:18;9.57;;;6.00;;
8889;SDS011;4481;43.406;24.454;2022-10-16T08:58:44;8.93;;;6.87;;
8889;SDS011;4481;43.406;24.454;2022-10-16T09:01:13;8.37;;;6.53;;
8889;SDS011;4481;43.406;24.454;2022-10-16T09:03:50;8.60;;;7.70;;
8889;SDS011;4481;43.406;24.454;2022-10-16T09:06:30;8.60;;;6.90;;
8889;SDS011;4481;43.406;24.454;2022-10-16T09:09:12;10.87;;;7.60;;
8889;SDS011;4481;43.406;24.454;2022-10-16T09:11:48;9.30;;;7.17;;
8889;SDS011;4481;43.406;24.454;2022-10-16T09:14:32;7.80;;;7.00;;
8889;SDS011;4481;43.406;24.454;2022-10-16T09:17:08;11.40;;;7.30;;
8889;SDS011;4481;43.406;24.454;2022-10-16T09:19:50;9.03;;;6.87;;
8889;SDS011;4481;43.406;24.454;2022-10-16T09:22:19;11.00;;;7.97;;
8889;SDS011;4481;43.406;24.454;2022-10-16T09:24:50;10.40;;;7.90;;
8889;SDS011;4481;43.406;24.454;2022-10-16T09:27:16;15.43;;;7.43;;
8889;SDS011;4481;43.406;24.454;2022-10-16T09:29:43;11.50;;;7.57;;
8889;SDS011;4481;43.406;24.454;2022-10-16T09:32:10;8.23;;;7.40;;
8889;SDS011;4481;43.406;24.454;2022-10-16T09:34:39;11.27;;;7.43;;
8889;SDS011;4481;43.406;24.454;2022-10-16T09:37:11;9.87;;;7.30;;
8889;SDS011;4481;43.406;24.454;2022-10-16T09:39:43;12.50;;;7.53;;
8889;SDS011;4481;43.406;24.454;2022-10-16T09:42:11;11.97;;;8.03;;
8889;SDS011;4481;43.406;24.454;2022-10-16T09:44:40;10.30;;;7.57;;
8889;SDS011;4481;43.406;24.454;2022-10-16T09:47:12;15.13;;;7.10;;
8889;SDS011;4481;43.406;24.454;2022-10-16T09:49:50;8.97;;;7.17;;
8889;SDS011;4481;43.406;24.454;2022-10-16T09:52:18;7.83;;;7.13;;
8889;SDS011;4481;43.406;24.454;2022-10-16T09:54:48;8.60;;;7.70;;
8889;SDS011;4481;43.406;24.454;2022-10-16T09:57:16;9.80;;;7.90;;
8889;SDS011;4481;43.406;24.454;2022-10-16T09:59:45;8.47;;;7.57;;
8889;SDS011;4481;43.406;24.454;2022-10-16T10:02:13;10.10;;;7.47;;
8889;SDS011;4481;43.406;24.454;2022-10-16T10:04:41;10.43;;;7.53;;
8889;SDS011;4481;43.406;24.454;2022-10-16T10:07:16;7.20;;;6.60;;
8889;SDS011;4481;43.406;24.454;2022-10-16T10:09:46;7.43;;;6.57;;
8889;SDS011;4481;43.406;24.454;2022-10-16T10:12:20;8.17;;;6.97;;
8889;SDS011;4481;43.406;24.454;2022-10-16T10:14:48;10.23;;;6.77;;
8889;SDS011;4481;43.406;24.454;2022-10-16T10:17:16;8.47;;;6.17;;
8889;SDS011;4481;43.406;24.454;2022-10-16T10:19:48;8.83;;;6.77;;
8889;SDS011;4481;43.406;24.454;2022-10-16T10:22:18;10.07;;;7.10;;
8889;SDS011;4481;43.406;24.454;2022-10-16T10:27:46;7.50;;;6.00;;
8889;SDS011;4481;43.406;24.454;2022-10-16T10:30:20;11.53;;;7.10;;
8889;SDS011;4481;43.406;24.454;2022-10-16T10:32:52;7.97;;;5.83;;
8889;SDS011;4481;43.406;24.454;2022-10-16T10:35:34;9.23;;;5.90;;
8889;SDS011;4481;43.406;24.454;2022-10-16T10:38:16;11.77;;;5.87;;
8889;SDS011;4481;43.406;24.454;2022-10-16T10:40:55;10.03;;;5.40;;
8889;SDS011;4481;43.406;24.454;2022-10-16T10:43:33;7.47;;;6.33;;
8889;SDS011;4481;43.406;24.454;2022-10-16T10:46:11;11.27;;;6.27;;
8889;SDS011;4481;43.406;24.454;2022-10-16T10:48:49;7.87;;;6.17;;
8889;SDS011;4481;43.406;24.454;2022-10-16T10:51:26;7.10;;;5.77;;
8889;SDS011;4481;43.406;24.454;2022-10-16T10:54:01;10.07;;;6.13;;
8889;SDS011;4481;43.406;24.454;2022-10-16T10:56:41;7.93;;;6.07;;
8889;SDS011;4481;43.406;24.454;2022-10-16T11:02:13;7.50;;;6.77;;
8889;SDS011;4481;43.406;24.454;2022-10-16T11:04:52;7.97;;;5.83;;
8889;SDS011;4481;43.406;24.454;2022-10-16T11:07:27;10.63;;;6.23;;
8889;SDS011;4481;43.406;24.454;2022-10-16T11:09:57;7.03;;;5.60;;
8889;SDS011;4481;43.406;24.454;2022-10-16T11:12:27;6.90;;;5.33;;
8889;SDS011;4481;43.406;24.454;2022-10-16T11:14:58;6.33;;;5.60;;
8889;SDS011;4481;43.406;24.454;2022-10-16T11:17:31;6.77;;;6.00;;
8889;SDS011;4481;43.406;24.454;2022-10-16T11:20:02;9.60;;;6.30;;
8889;SDS011;4481;43.406;24.454;2022-10-16T11:22:37;7.83;;;5.60;;
8889;SDS011;4481;43.406;24.454;2022-10-16T11:25:12;9.77;;;6.07;;
8889;SDS011;4481;43.406;24.454;2022-10-16T11:27:43;7.00;;;6.30;;
8889;SDS011;4481;43.406;24.454;2022-10-16T11:30:14;7.90;;;6.33;;
8889;SDS011;4481;43.406;24.454;2022-10-16T11:32:56;7.53;;;5.87;;
8889;SDS011;4481;43.406;24.454;2022-10-16T11:35:33;5.80;;;5.20;;
8889;SDS011;4481;43.406;24.454;2022-10-16T11:38:08;7.03;;;5.90;;
8889;SDS011;4481;43.406;24.454;2022-10-16T11:40:41;6.87;;;6.17;;
8889;SDS011;4481;43.406;24.454;2022-10-16T11:43:14;9.33;;;6.10;;
8889;SDS011;4481;43.406;24.454;2022-10-16T11:45:46;8.70;;;6.00;;
8889;SDS011;4481;43.406;24.454;2022-10-16T11:48:17;8.67;;;5.80;;
8889;SDS011;4481;43.406;24.454;2022-10-16T11:50:51;7.70;;;6.40;;
8889;SDS011;4481;43.406;24.454;2022-10-16T11:53:21;9.07;;;5.83;;
8889;SDS011;4481;43.406;24.454;2022-10-16T11:55:58;6.63;;;6.03;;
8889;SDS011;4481;43.406;24.454;2022-10-16T11:58:25;6.73;;;6.03;;
8889;SDS011;4481;43.406;24.454;2022-10-16T12:00:59;7.77;;;5.97;;
8889;SDS011;4481;43.406;24.454;2022-10-16T12:03:38;6.97;;;5.80;;
8889;SDS011;4481;43.406;24.454;2022-10-16T12:06:14;7.53;;;6.57;;
8889;SDS011;4481;43.406;24.454;2022-10-16T12:08:55;6.30;;;5.37;;
8889;SDS011;4481;43.406;24.454;2022-10-16T12:11:32;12.90;;;6.50;;
8889;SDS011;4481;43.406;24.454;2022-10-16T12:17:00;6.07;;;5.43;;
8889;SDS011;4481;43.406;24.454;2022-10-16T12:19:30;6.57;;;5.40;;
8889;SDS011;4481;43.406;24.454;2022-10-16T12:21:58;7.47;;;5.87;;
8889;SDS011;4481;43.406;24.454;2022-10-16T12:24:29;7.70;;;5.47;;
8889;SDS011;4481;43.406;24.454;2022-10-16T12:26:59;7.13;;;5.23;;
8889;SDS011;4481;43.406;24.454;2022-10-16T12:29:30;10.83;;;6.17;;
8889;SDS011;4481;43.406;24.454;2022-10-16T12:31:59;8.10;;;4.73;;
8889;SDS011;4481;43.406;24.454;2022-10-16T12:34:27;4.87;;;4.47;;
8889;SDS011;4481;43.406;24.454;2022-10-16T12:36:55;5.10;;;4.50;;
8889;SDS011;4481;43.406;24.454;2022-10-16T12:39:32;8.90;;;5.23;;
8889;SDS011;4481;43.406;24.454;2022-10-16T12:42:03;6.97;;;4.90;;
8889;SDS011;4481;43.406;24.454;2022-10-16T12:44:33;7.27;;;4.77;;
8889;SDS011;4481;43.406;24.454;2022-10-16T12:47:00;6.17;;;4.57;;
8889;SDS011;4481;43.406;24.454;2022-10-16T12:49:31;7.33;;;5.33;;
8889;SDS011;4481;43.406;24.454;2022-10-16T12:52:02;5.13;;;4.63;;
8889;SDS011;4481;43.406;24.454;2022-10-16T12:54:29;5.37;;;4.63;;
8889;SDS011;4481;43.406;24.454;2022-10-16T12:57:05;6.20;;;5.03;;
8889;SDS011;4481;43.406;24.454;2022-10-16T12:59:46;5.67;;;4.63;;
8889;SDS011;4481;43.406;24.454;2022-10-16T13:05:21;9.40;;;5.23;;
8889;SDS011;4481;43.406;24.454;2022-10-16T13:07:57;6.27;;;5.10;;
8889;SDS011;4481;43.406;24.454;2022-10-16T13:10:39;9.23;;;6.23;;
8889;SDS011;4481;43.406;24.454;2022-10-16T13:13:18;6.60;;;5.40;;
8889;SDS011;4481;43.406;24.454;2022-10-16T13:16:22;6.17;;;4.90;;
8889;SDS011;4481;43.406;24.454;2022-10-16T13:18:55;5.60;;;4.80;;
8889;SDS011;4481;43.406;24.454;2022-10-16T13:21:33;5.43;;;4.93;;
8889;SDS011;4481;43.406;24.454;2022-10-16T13:24:11;8.73;;;5.70;;
8889;SDS011;4481;43.406;24.454;2022-10-16T13:26:49;7.03;;;5.30;;
8889;SDS011;4481;43.406;24.454;2022-10-16T13:29:22;5.83;;;5.20;;
8889;SDS011;4481;43.406;24.454;2022-10-16T13:31:48;5.87;;;5.27;;
8889;SDS011;4481;43.406;24.454;2022-10-16T13:34:17;6.57;;;5.43;;
8889;SDS011;4481;43.406;24.454;2022-10-16T13:36:47;6.53;;;5.47;;
8889;SDS011;4481;43.406;24.454;2022-10-16T13:39:19;5.37;;;4.87;;
8889;SDS011;4481;43.406;24.454;2022-10-16T13:41:57;9.77;;;5.67;;
8889;SDS011;4481;43.406;24.454;2022-10-16T13:44:35;7.83;;;5.67;;
8889;SDS011;4481;43.406;24.454;2022-10-16T13:47:05;10.23;;;6.23;;
8889;SDS011;4481;43.406;24.454;2022-10-16T13:49:40;8.23;;;6.63;;
8889;SDS011;4481;43.406;24.454;2022-10-16T13:52:15;11.03;;;6.00;;
8889;SDS011;4481;43.406;24.454;2022-10-16T13:54:43;7.77;;;6.20;;
8889;SDS011;4481;43.406;24.454;2022-10-16T13:57:11;7.57;;;6.33;;
8889;SDS011;4481;43.406;24.454;2022-10-16T13:59:40;8.57;;;6.57;;
8889;SDS011;4481;43.406;24.454;2022-10-16T14:02:09;10.37;;;6.90;;
8889;SDS011;4481;43.406;24.454;2022-10-16T14:04:45;7.13;;;6.43;;
8889;SDS011;4481;43.406;24.454;2022-10-16T14:07:13;6.67;;;5.93;;
8889;SDS011;4481;43.406;24.454;2022-10-16T14:09:47;10.10;;;5.90;;
8889;SDS011;4481;43.406;24.454;2022-10-16T14:12:15;7.87;;;6.13;;
8889;SDS011;4481;43.406;24.454;2022-10-16T14:14:42;13.30;;;6.77;;
8889;SDS011;4481;43.406;24.454;2022-10-16T14:17:13;6.17;;;5.57;;
8889;SDS011;4481;43.406;24.454;2022-10-16T14:19:40;6.90;;;5.73;;
8889;SDS011;4481;43.406;24.454;2022-10-16T14:22:26;9.30;;;7.27;;
8889;SDS011;4481;43.406;24.454;2022-10-16T14:24:55;8.67;;;6.80;;
8889;SDS011;4481;43.406;24.454;2022-10-16T14:27:23;8.63;;;6.40;;
8889;SDS011;4481;43.406;24.454;2022-10-16T14:30:05;7.30;;;6.13;;
8889;SDS011;4481;43.406;24.454;2022-10-16T14:32:42;9.60;;;6.27;;
8889;SDS011;4481;43.406;24.454;2022-10-16T14:35:23;8.80;;;6.33;;
8889;SDS011;4481;43.406;24.454;2022-10-16T14:37:51;8.10;;;6.73;;
8889;SDS011;4481;43.406;24.454;2022-10-16T14:40:18;7.20;;;6.50;;
8889;SDS011;4481;43.406;24.454;2022-10-16T14:42:46;7.67;;;6.27;;
8889;SDS011;4481;43.406;24.454;2022-10-16T14:45:13;7.23;;;6.53;;
8889;SDS011;4481;43.406;24.454;2022-10-16T14:47:49;8.00;;;6.73;;
8889;SDS011;4481;43.406;24.454;2022-10-16T14:50:17;7.73;;;6.60;;
8889;SDS011;4481;43.406;24.454;2022-10-16T14:52:43;8.60;;;7.70;;
8889;SDS011;4481;43.406;24.454;2022-10-16T14:55:10;10.37;;;7.43;;
8889;SDS011;4481;43.406;24.454;2022-10-16T14:57:36;7.80;;;6.80;;
8889;SDS011;4481;43.406;24.454;2022-10-16T15:00:04;8.97;;;6.70;;
8889;SDS011;4481;43.406;24.454;2022-10-16T15:02:39;12.93;;;7.23;;
8889;SDS011;4481;43.406;24.454;2022-10-16T15:05:10;10.20;;;6.80;;
8889;SDS011;4481;43.406;24.454;2022-10-16T15:07:38;9.50;;;7.07;;
8889;SDS011;4481;43.406;24.454;2022-10-16T15:10:05;11.00;;;6.83;;
8889;SDS011;4481;43.406;24.454;2022-10-16T15:12:31;10.67;;;7.90;;
8889;SDS011;4481;43.406;24.454;2022-10-16T15:14:57;11.70;;;8.53;;
8889;SDS011;4481;43.406;24.454;2022-10-16T15:17:23;12.13;;;9.23;;
8889;SDS011;4481;43.406;24.454;2022-10-16T15:19:50;12.07;;;9.03;;
8889;SDS011;4481;43.406;24.454;2022-10-16T15:22:16;21.10;;;14.60;;
8889;SDS011;4481;43.406;24.454;2022-10-16T15:24:42;24.73;;;17.70;;